createdAt,value
2019-03-21T00:01:12.264Z,16.77
2019-03-21T00:03:53.733Z,17.20
2019-03-21T00:06:33.435Z,16.80
2019-03-21T00:09:16.168Z,15.90
2019-03-21T00:12:10.611Z,16.82
2019-03-21T00:15:24.903Z,16.42
2019-03-21T00:20:43.852Z,16.93
2019-03-21T00:23:25.644Z,16.45
2019-03-21T00:26:10.962Z,16.00
2019-03-21T00:28:55.777Z,16.37
2019-03-21T00:31:34.403Z,17.02
2019-03-21T00:34:16.832Z,15.65
2019-03-21T00:36:57.568Z,15.23
2019-03-21T00:39:37.453Z,14.67
2019-03-21T00:42:16.700Z,14.05
2019-03-21T00:44:58.074Z,14.95
2019-03-21T00:47:41.196Z,14.50
2019-03-21T00:50:24.198Z,14.80
2019-03-21T00:53:03.344Z,15.08
2019-03-21T00:55:46.870Z,14.45
2019-03-21T00:58:27.584Z,14.50
2019-03-21T01:01:09.242Z,14.47
2019-03-21T01:03:52.837Z,14.95
2019-03-21T01:06:32.684Z,14.23
2019-03-21T01:09:13.779Z,15.78
2019-03-21T01:11:53.103Z,16.00
2019-03-21T01:14:32.436Z,15.63
2019-03-21T01:17:11.171Z,15.45
2019-03-21T01:19:50.680Z,16.07
2019-03-21T01:22:33.760Z,16.20
2019-03-21T01:25:22.186Z,16.35
2019-03-21T01:28:11.371Z,16.73
2019-03-21T01:30:52.062Z,17.15
2019-03-21T01:33:31.435Z,16.35
2019-03-21T01:36:11.199Z,15.95
2019-03-21T01:38:59.661Z,17.48
2019-03-21T01:41:48.923Z,16.52
2019-03-21T01:44:41.477Z,18.05
2019-03-21T01:47:22.557Z,17.87
2019-03-21T01:50:01.883Z,16.67
2019-03-21T01:52:43.892Z,17.57
2019-03-21T01:55:22.958Z,17.07
2019-03-21T01:58:04.021Z,17.45
2019-03-21T02:00:44.351Z,17.57
2019-03-21T02:03:24.264Z,17.37
2019-03-21T02:06:03.493Z,16.57
2019-03-21T02:08:43.084Z,17.57
2019-03-21T02:11:21.963Z,18.55
2019-03-21T02:14:26.622Z,18.40
2019-03-21T02:17:05.334Z,18.67
2019-03-21T02:19:45.156Z,19.50
2019-03-21T02:22:27.934Z,20.50
2019-03-21T02:25:11.158Z,20.77
2019-03-21T02:27:50.072Z,20.12
2019-03-21T02:30:30.544Z,20.00
2019-03-21T02:33:17.831Z,20.15
2019-03-21T02:36:02.235Z,18.65
2019-03-21T02:38:46.666Z,18.30
2019-03-21T02:41:31.656Z,19.20
2019-03-21T02:44:12.454Z,19.60
2019-03-21T02:46:53.954Z,18.77
2019-03-21T02:49:34.902Z,19.10
2019-03-21T02:52:27.620Z,19.32
2019-03-21T02:55:07.829Z,19.37
2019-03-21T02:57:53.258Z,19.80
2019-03-21T03:00:35.967Z,20.60
2019-03-21T03:03:19.386Z,23.65
2019-03-21T03:08:37.308Z,21.10
2019-03-21T03:11:22.182Z,22.07
2019-03-21T03:14:08.324Z,21.30
2019-03-21T03:16:53.079Z,20.25
2019-03-21T03:19:35.294Z,20.60
2019-03-21T03:22:15.837Z,21.90
2019-03-21T03:24:55.473Z,21.20
2019-03-21T03:27:33.859Z,21.35
2019-03-21T03:30:19.168Z,19.15
2019-03-21T03:32:59.151Z,20.02
2019-03-21T03:35:41.385Z,21.40
2019-03-21T03:38:23.081Z,20.53
2019-03-21T03:41:08.412Z,19.90
2019-03-21T03:43:46.436Z,20.08
2019-03-21T03:46:25.053Z,20.50
2019-03-21T03:49:03.570Z,20.35
2019-03-21T03:51:47.316Z,21.17
2019-03-21T03:54:28.264Z,22.05
2019-03-21T03:57:27.096Z,20.32
2019-03-21T04:00:05.785Z,20.08
2019-03-21T04:02:45.936Z,19.48
2019-03-21T04:05:26.083Z,20.37
2019-03-21T04:08:06.025Z,20.65
2019-03-21T04:10:49.724Z,19.98
2019-03-21T04:13:32.377Z,18.98
2019-03-21T04:16:12.696Z,20.43
2019-03-21T04:18:59.229Z,21.93
2019-03-21T04:21:42.619Z,20.05
2019-03-21T04:24:30.015Z,19.95
2019-03-21T04:27:09.363Z,19.50
2019-03-21T04:29:48.782Z,19.55
2019-03-21T04:32:28.718Z,19.50
2019-03-21T04:35:14.706Z,18.80
2019-03-21T04:37:57.171Z,19.45
2019-03-21T04:40:46.911Z,20.12
2019-03-21T04:43:43.020Z,21.07
2019-03-21T04:46:30.480Z,20.85
2019-03-21T04:49:10.425Z,20.50
2019-03-21T04:51:52.035Z,19.77
2019-03-21T04:54:35.994Z,20.00
2019-03-21T04:57:20.485Z,22.00
2019-03-21T05:00:03.548Z,21.55
2019-03-21T05:02:43.043Z,21.60
2019-03-21T05:05:25.591Z,21.70
2019-03-21T05:08:07.019Z,19.50
2019-03-21T05:10:47.560Z,21.95
2019-03-21T05:13:37.059Z,20.70
2019-03-21T05:16:32.568Z,21.65
2019-03-21T05:19:30.281Z,22.32
2019-03-21T05:22:29.913Z,22.07
2019-03-21T05:25:11.667Z,23.62
2019-03-21T05:27:53.303Z,22.20
2019-03-21T05:34:44.331Z,20.92
2019-03-21T05:38:03.946Z,21.55
2019-03-21T05:41:18.171Z,19.92
2019-03-21T05:44:51.672Z,21.00
2019-03-21T05:51:35.544Z,21.05
2019-03-21T05:57:42.259Z,21.37
2019-03-21T06:00:27.871Z,20.88
2019-03-21T06:03:23.948Z,20.48
2019-03-21T06:06:52.319Z,22.52
2019-03-21T06:09:35.156Z,23.77
2019-03-21T06:12:17.994Z,22.37
2019-03-21T06:15:01.446Z,21.70
2019-03-21T06:17:46.715Z,21.42
2019-03-21T06:20:59.644Z,21.60
2019-03-21T06:27:37.391Z,20.72
2019-03-21T06:30:33.974Z,21.95
2019-03-21T06:33:19.878Z,21.82
2019-03-21T06:39:42.873Z,20.82
2019-03-21T06:42:31.825Z,21.77
2019-03-21T06:45:11.821Z,23.55
2019-03-21T06:48:04.983Z,22.27
2019-03-21T06:50:46.886Z,23.35
2019-03-21T06:53:25.544Z,23.52
2019-03-21T06:56:06.041Z,22.55
2019-03-21T06:58:46.073Z,23.20
2019-03-21T07:01:28.594Z,23.25
2019-03-21T07:04:10.275Z,24.67
2019-03-21T07:06:52.644Z,23.45
2019-03-21T07:09:47.428Z,24.10
2019-03-21T07:12:45.379Z,23.80
2019-03-21T07:15:29.566Z,23.50
2019-03-21T07:18:09.690Z,23.47
2019-03-21T07:20:53.072Z,23.57
2019-03-21T07:23:32.280Z,24.18
2019-03-21T07:26:13.291Z,24.18
2019-03-21T07:28:55.344Z,23.85
2019-03-21T07:31:40.348Z,24.20
2019-03-21T07:34:23.688Z,23.65
2019-03-21T07:37:12.738Z,24.20
2019-03-21T07:39:52.940Z,23.65
2019-03-21T07:42:40.645Z,23.87
2019-03-21T07:45:26.935Z,23.32
2019-03-21T07:48:12.563Z,25.08
2019-03-21T07:51:05.822Z,23.65
2019-03-21T07:53:53.938Z,23.85
2019-03-21T08:07:36.423Z,23.12
2019-03-21T08:10:48.187Z,22.77
2019-03-21T08:14:04.913Z,22.98
2019-03-21T08:16:56.233Z,23.60
2019-03-21T08:19:43.971Z,25.12
2019-03-21T08:22:30.594Z,24.52
2019-03-21T08:25:22.289Z,22.82
2019-03-21T08:28:08.677Z,23.42
2019-03-21T08:31:24.263Z,24.32
2019-03-21T08:34:11.026Z,25.68
2019-03-21T08:36:57.737Z,22.30
2019-03-21T08:39:43.548Z,22.87
2019-03-21T08:42:26.059Z,23.77
2019-03-21T08:45:10.449Z,24.65
2019-03-21T08:47:55.363Z,22.87
2019-03-21T08:50:40.141Z,25.10
2019-03-21T08:53:26.681Z,23.73
2019-03-21T08:56:10.469Z,23.02
2019-03-21T08:58:58.583Z,24.30
2019-03-21T09:01:43.491Z,23.45
2019-03-21T09:04:25.515Z,24.23
2019-03-21T09:07:05.189Z,23.77
2019-03-21T09:09:44.225Z,23.42
2019-03-21T09:12:23.175Z,23.83
2019-03-21T09:15:03.106Z,24.15
2019-03-21T09:17:41.434Z,24.10
2019-03-21T09:20:21.754Z,24.50
2019-03-21T09:23:01.712Z,25.55
2019-03-21T09:25:40.921Z,25.52
2019-03-21T09:28:19.685Z,24.98
2019-03-21T09:30:58.473Z,24.67
2019-03-21T09:33:38.552Z,26.12
2019-03-21T09:36:17.056Z,25.50
2019-03-21T09:38:55.930Z,26.30
2019-03-21T09:41:35.070Z,26.52
2019-03-21T09:44:15.088Z,25.97
2019-03-21T09:46:54.058Z,25.90
2019-03-21T09:49:34.044Z,26.95
2019-03-21T09:52:13.750Z,25.75
2019-03-21T09:54:53.213Z,28.27
2019-03-21T09:57:31.409Z,27.75
2019-03-21T10:00:12.402Z,26.30
2019-03-21T10:02:50.832Z,25.45
2019-03-21T10:08:10.972Z,25.32
2019-03-21T10:10:49.742Z,26.45
2019-03-21T10:13:28.965Z,23.87
2019-03-21T10:16:08.980Z,24.57
2019-03-21T10:18:48.342Z,23.73
2019-03-21T10:21:29.645Z,24.57
2019-03-21T10:24:09.842Z,23.60
2019-03-21T10:26:50.650Z,24.05
2019-03-21T10:29:28.939Z,26.00
2019-03-21T10:32:14.084Z,23.40
2019-03-21T10:34:52.790Z,24.50
2019-03-21T10:37:35.302Z,23.52
2019-03-21T10:40:21.317Z,24.37
2019-03-21T10:43:00.475Z,24.67
2019-03-21T10:45:40.126Z,25.48
2019-03-21T10:48:19.455Z,24.85
2019-03-21T10:51:00.702Z,24.90
2019-03-21T10:53:39.467Z,24.70
2019-03-21T10:56:23.619Z,23.83
2019-03-21T10:59:09.109Z,24.35
2019-03-21T11:01:50.699Z,24.45
2019-03-21T11:04:30.251Z,24.23
2019-03-21T11:07:04.703Z,24.18
2019-03-21T11:09:44.440Z,22.80
2019-03-21T11:12:24.510Z,23.55
2019-03-21T11:15:03.000Z,23.30
2019-03-21T11:17:46.658Z,23.40
2019-03-21T11:20:45.900Z,23.77
2019-03-21T11:23:27.029Z,23.22
2019-03-21T11:26:06.029Z,24.60
2019-03-21T11:28:45.031Z,21.70
2019-03-21T11:31:24.704Z,21.62
2019-03-21T11:34:06.436Z,23.65
2019-03-21T11:36:45.142Z,23.30
2019-03-21T11:39:27.147Z,22.45
2019-03-21T11:44:42.633Z,22.82
2019-03-21T11:47:21.846Z,22.85
2019-03-21T11:49:59.811Z,22.00
2019-03-21T11:52:41.068Z,20.82
2019-03-21T11:55:20.126Z,22.75
2019-03-21T11:57:59.899Z,21.85
2019-03-21T12:00:43.744Z,22.07
2019-03-21T12:03:21.009Z,21.87
2019-03-21T12:06:00.014Z,21.45
2019-03-21T12:08:39.440Z,21.80
2019-03-21T12:11:21.365Z,20.88
2019-03-21T12:14:01.160Z,21.65
2019-03-21T12:16:40.096Z,22.32
2019-03-21T12:19:19.217Z,21.07
2019-03-21T12:21:59.108Z,19.55
2019-03-21T12:24:40.693Z,19.00
2019-03-21T12:27:20.541Z,18.30
2019-03-21T12:30:00.139Z,28.83
2019-03-21T12:32:39.631Z,20.35
2019-03-21T12:35:20.737Z,18.20
2019-03-21T12:37:59.770Z,19.25
2019-03-21T12:40:38.332Z,20.20
2019-03-21T12:43:20.281Z,20.70
2019-03-21T12:48:37.630Z,19.77
2019-03-21T12:51:32.479Z,20.12
2019-03-21T12:54:14.735Z,19.90
2019-03-21T12:56:58.374Z,19.60
2019-03-21T12:59:44.913Z,18.67
2019-03-21T13:05:12.396Z,18.57
2019-03-21T13:07:13.368Z,19.73
2019-03-21T13:07:52.528Z,17.73
2019-03-21T13:10:31.080Z,17.32
2019-03-21T13:13:09.985Z,17.75
2019-03-21T13:15:48.967Z,18.20
2019-03-21T13:18:31.193Z,18.20
2019-03-21T13:21:11.066Z,17.50
2019-03-21T13:23:50.463Z,17.42
2019-03-21T13:26:29.053Z,17.92
2019-03-21T13:29:09.041Z,18.15
2019-03-21T13:31:59.481Z,17.17
2019-03-21T13:34:38.786Z,16.75
2019-03-21T13:37:17.406Z,17.65
2019-03-21T13:39:58.124Z,16.30
2019-03-21T13:42:37.806Z,18.12
2019-03-21T13:45:17.780Z,18.37
2019-03-21T13:47:59.067Z,18.05
2019-03-21T13:50:38.487Z,17.23
2019-03-21T13:53:19.293Z,16.27
2019-03-21T13:56:00.730Z,17.05
2019-03-21T13:58:39.810Z,18.05
2019-03-21T14:01:20.092Z,18.17
2019-03-21T14:04:03.561Z,17.87
2019-03-21T14:06:44.973Z,16.52
2019-03-21T14:12:03.249Z,17.02
2019-03-21T14:14:45.677Z,17.20
2019-03-21T14:17:26.549Z,17.55
2019-03-21T14:20:12.623Z,18.00
2019-03-21T14:23:00.197Z,17.52
2019-03-21T14:25:40.118Z,17.50
2019-03-21T14:28:25.567Z,16.70
2019-03-21T14:31:05.142Z,17.23
2019-03-21T14:33:47.231Z,16.97
2019-03-21T14:36:27.002Z,16.97
2019-03-21T14:39:08.035Z,16.93
2019-03-21T14:41:50.361Z,18.65
2019-03-21T14:44:30.954Z,18.10
2019-03-21T14:47:09.881Z,16.82
2019-03-21T14:49:53.044Z,18.48
2019-03-21T14:52:34.853Z,17.07
2019-03-21T14:55:14.508Z,18.57
2019-03-21T14:57:53.479Z,17.75
2019-03-21T15:00:33.017Z,16.45
2019-03-21T15:03:12.521Z,19.85
2019-03-21T15:05:51.895Z,18.87
2019-03-21T15:08:31.712Z,18.00
2019-03-21T15:11:16.897Z,18.27
2019-03-21T15:13:51.104Z,17.87
2019-03-21T15:16:31.162Z,17.37
2019-03-21T15:19:14.284Z,17.32
2019-03-21T15:21:53.168Z,17.37
2019-03-21T15:24:35.438Z,18.12
2019-03-21T15:29:53.295Z,17.98
2019-03-21T15:32:32.064Z,18.42
2019-03-21T15:35:12.166Z,16.97
2019-03-21T15:37:50.885Z,17.15
2019-03-21T15:40:30.798Z,18.62
2019-03-21T15:43:14.937Z,16.95
2019-03-21T15:45:54.109Z,16.02
2019-03-21T15:48:34.517Z,17.70
2019-03-21T15:51:13.500Z,17.27
2019-03-21T15:53:56.465Z,18.25
2019-03-21T15:56:33.241Z,18.05
2019-03-21T15:59:11.941Z,17.17
2019-03-21T16:01:50.810Z,17.48
2019-03-21T16:04:31.676Z,18.37
2019-03-21T16:07:10.020Z,19.10
2019-03-21T16:09:50.842Z,17.95
2019-03-21T16:12:29.833Z,18.45
2019-03-21T16:15:09.861Z,18.73
2019-03-21T16:17:48.620Z,18.40
2019-03-21T16:20:31.772Z,18.02
2019-03-21T16:23:10.306Z,19.50
2019-03-21T16:25:48.987Z,19.07
2019-03-21T16:28:28.060Z,19.27
2019-03-21T16:31:07.238Z,20.45
2019-03-21T16:33:46.595Z,19.60
2019-03-21T16:36:27.350Z,19.20
2019-03-21T16:39:07.600Z,20.45
2019-03-21T16:41:46.670Z,19.77
2019-03-21T16:44:29.609Z,18.75
2019-03-21T16:47:08.592Z,17.98
2019-03-21T16:49:47.412Z,18.75
2019-03-21T16:52:28.308Z,17.80
2019-03-21T16:55:07.227Z,17.32
2019-03-21T16:57:45.885Z,17.85
2019-03-21T17:00:25.239Z,18.27
2019-03-21T17:03:04.628Z,18.57
2019-03-21T17:05:43.756Z,19.10
2019-03-21T17:08:23.295Z,19.20
2019-03-21T17:11:03.295Z,18.35
2019-03-21T17:13:42.584Z,18.98
2019-03-21T17:16:21.506Z,18.57
2019-03-21T17:18:59.881Z,19.27
2019-03-21T17:21:39.835Z,18.25
2019-03-21T17:24:29.248Z,18.55
2019-03-21T17:27:01.241Z,19.15
2019-03-21T17:29:43.855Z,18.70
2019-03-21T17:32:26.936Z,19.03
2019-03-21T17:35:05.851Z,21.30
2019-03-21T17:37:45.691Z,22.05
2019-03-21T17:40:25.635Z,23.47
2019-03-21T17:43:05.042Z,22.07
2019-03-21T17:45:47.203Z,20.70
2019-03-21T17:48:27.461Z,20.97
2019-03-21T17:51:06.488Z,18.80
2019-03-21T17:53:48.233Z,19.73
2019-03-21T17:56:27.562Z,18.48
2019-03-21T17:59:07.847Z,22.45
2019-03-21T18:01:46.188Z,19.87
2019-03-21T18:04:25.342Z,18.90
2019-03-21T18:07:04.885Z,18.30
2019-03-21T18:09:44.493Z,18.98
2019-03-21T18:12:23.249Z,18.67
2019-03-21T18:15:06.261Z,19.07
2019-03-21T18:17:44.866Z,19.98
2019-03-21T18:20:23.588Z,20.43
2019-03-21T18:23:03.572Z,21.80
2019-03-21T18:25:42.564Z,22.60
2019-03-21T18:28:25.701Z,21.65
2019-03-21T18:31:07.457Z,18.98
2019-03-21T18:36:21.871Z,18.85
2019-03-21T18:39:02.715Z,17.95
2019-03-21T18:41:44.710Z,18.87
2019-03-21T18:44:23.810Z,17.63
2019-03-21T18:47:13.367Z,18.40
2019-03-21T18:49:53.218Z,18.85
2019-03-21T18:52:34.118Z,20.72
2019-03-21T18:55:13.078Z,18.90
2019-03-21T18:57:52.417Z,19.23
2019-03-21T19:00:32.380Z,18.77
2019-03-21T19:03:11.404Z,20.30
2019-03-21T19:05:50.103Z,18.48
2019-03-21T19:08:28.760Z,18.10
2019-03-21T19:11:07.699Z,18.57
2019-03-21T19:13:47.225Z,19.05
2019-03-21T19:16:26.944Z,19.32
2019-03-21T19:19:06.018Z,20.10
2019-03-21T19:21:45.249Z,21.05
2019-03-21T19:24:24.859Z,22.65
2019-03-21T19:27:04.024Z,21.75
2019-03-21T19:29:42.621Z,21.33
2019-03-21T19:32:22.467Z,18.75
2019-03-21T19:35:01.625Z,18.45
2019-03-21T19:37:41.458Z,20.45
2019-03-21T19:40:22.087Z,18.85
2019-03-21T19:43:01.526Z,17.52
2019-03-21T19:45:40.117Z,16.85
2019-03-21T19:48:18.872Z,18.45
2019-03-21T19:51:03.472Z,17.92
2019-03-21T19:53:43.564Z,17.05
2019-03-21T19:56:22.576Z,16.90
2019-03-21T19:59:03.743Z,17.00
2019-03-21T20:01:43.048Z,17.45
2019-03-21T20:04:23.183Z,16.25
2019-03-21T20:07:04.883Z,16.52
2019-03-21T20:09:44.338Z,16.73
2019-03-21T20:16:22.978Z,16.02
2019-03-21T20:23:10.175Z,17.95
2019-03-21T20:25:52.807Z,16.52
2019-03-21T20:28:30.955Z,16.87
2019-03-21T20:31:09.845Z,16.60
2019-03-21T20:33:52.178Z,16.70
2019-03-21T20:36:33.467Z,16.30
2019-03-21T20:39:12.908Z,16.00
2019-03-21T20:41:54.153Z,16.07
2019-03-21T20:44:35.691Z,16.35
2019-03-21T20:47:15.923Z,16.05
2019-03-21T20:49:57.831Z,16.57
2019-03-21T20:52:38.886Z,16.07
2019-03-21T20:55:18.560Z,16.52
2019-03-21T21:03:03.384Z,16.27
2019-03-21T21:05:41.949Z,14.97
2019-03-21T21:08:21.709Z,14.65
2019-03-21T21:11:01.186Z,15.55
2019-03-21T21:13:41.815Z,15.08
2019-03-21T21:16:21.165Z,13.80
2019-03-21T21:19:02.245Z,14.47
2019-03-21T21:21:42.204Z,14.20
2019-03-21T21:24:22.991Z,12.93
2019-03-21T21:27:01.542Z,14.28
2019-03-21T21:29:42.937Z,12.88
2019-03-21T21:32:21.629Z,13.25
2019-03-21T21:35:00.370Z,14.25
2019-03-21T21:37:38.949Z,14.65
2019-03-21T21:40:20.839Z,13.90
2019-03-21T21:43:00.698Z,13.90
2019-03-21T21:45:41.022Z,14.83
2019-03-21T21:48:20.421Z,13.93
2019-03-21T21:50:58.877Z,12.85
2019-03-21T21:53:38.328Z,13.98
2019-03-21T21:56:22.749Z,13.62
2019-03-21T21:59:02.977Z,13.85
2019-03-21T22:01:44.248Z,15.10
2019-03-21T22:04:24.801Z,13.65
2019-03-21T22:07:03.845Z,13.68
2019-03-21T22:09:42.123Z,13.25
2019-03-21T22:12:22.440Z,13.62
2019-03-21T22:15:02.054Z,13.85
2019-03-21T22:17:43.177Z,14.05
2019-03-21T22:20:23.436Z,14.30
2019-03-21T22:23:02.001Z,14.80
2019-03-21T22:25:41.155Z,14.78
2019-03-21T22:28:20.347Z,14.95
2019-03-21T22:30:59.853Z,14.73
2019-03-21T22:33:38.546Z,14.75
2019-03-21T22:36:18.652Z,14.93
2019-03-21T22:38:58.615Z,15.85
2019-03-21T22:41:38.383Z,14.23
2019-03-21T22:44:20.685Z,16.07
2019-03-21T22:46:59.738Z,15.48
2019-03-21T22:49:38.591Z,15.55
2019-03-21T22:52:17.561Z,14.93
2019-03-21T22:54:57.119Z,15.25
2019-03-21T22:57:37.228Z,15.20
2019-03-21T23:00:23.167Z,15.45
2019-03-21T23:03:04.911Z,15.00
2019-03-21T23:05:44.351Z,15.90
2019-03-21T23:08:25.616Z,15.10
2019-03-21T23:11:05.859Z,15.10
2019-03-21T23:13:45.094Z,17.05
2019-03-21T23:16:28.833Z,15.90
2019-03-21T23:19:08.579Z,15.65
2019-03-21T23:21:48.239Z,16.05
2019-03-21T23:24:27.308Z,15.58
2019-03-21T23:27:06.181Z,15.08
2019-03-21T23:29:46.750Z,15.18
2019-03-21T23:32:26.102Z,16.12
2019-03-21T23:35:04.307Z,16.02
2019-03-21T23:37:48.179Z,15.50
2019-03-21T23:40:28.398Z,15.45
2019-03-21T23:43:07.470Z,16.27
2019-03-21T23:45:45.988Z,15.08
2019-03-21T23:48:25.959Z,14.43
2019-03-21T23:51:06.168Z,15.18
2019-03-21T23:53:45.038Z,14.73
2019-03-21T23:56:27.624Z,14.58
2019-03-21T23:59:08.076Z,15.00
